Latest Coastal Weather Observations for Maatsuyker Island

IDT60701

Issued at 1:41 am EST Tuesday 26 May 2015 (issued every 10 minutes, with the page automatically refreshed every 10 minutes)

About coastal observations | Map of coastal stations | Coastal observations for TAS | Marine services | Other Formats
Station Details ID: 094041 Name: MAATSUYKER ISLAND LIGHTHOUSE Lat: -43.66 Lon: 146.27 Height: 146.5 m
Data from the previous 72 hours. | See also: Recent months at Maatsuyker Island
Date/Time
EST
Temp

°C
Wind Pressure Rain
since 9am
mm
Weather Cloud Vis
km
Sea
Height
m
Swell
Dir
 
Speed
knots
Gust
knots
hPa Trend Height
m
Period
s
Dir
26/01:30am 10.3 WNW 18 22 1025.6 - - - - - - - - -
26/01:00am 10.3 WNW 19 23 1025.4 - - - - - - - - -
26/12:30am 10.5 W 16 21 1025.4 - - - - - - - - -
26/12:00am 10.6 W 15 19 1025.4 - - - - - - - - -
 
Date/Time
EST
Temp

°C
Wind Pressure Rain
since 9am
mm
Weather Cloud Vis
km
Sea
Height
m
Swell
Dir
 
Speed
knots
Gust
knots
hPa Trend Height
m
Period
s
Dir
25/11:30pm 10.8 WNW 19 25 1024.8 - - - - - - - - -
25/11:00pm 10.8 W 15 20 1024.6 - - - - - - - - -
25/10:30pm 11.3 W 15 18 1024.7 - - - - - - - - -
25/10:26pm 11.5 NW 23 25 1024.1 - - - - - - - - -
25/10:03pm 11.5 NW 34 44 1023.7 - - - - - - - - -
25/10:00pm 11.7 NW 35 44 1023.3 - - - - - - - - -
25/09:55pm 11.9 NW 34 44 1022.9 - - - - - - - - -
25/09:30pm 12.0 NW 32 36 1023.6 - - - - - - - - -
25/09:28pm 12.1 NW 31 34 1023.6 - - - - - - - - -
25/09:15pm 10.6 NNW 20 25 1024.1 - - - - - - - - -
25/09:00pm 12.1 NW 35 40 1023.5 - - - - - - - - -
25/08:30pm 12.1 NNW 36 43 1022.9 - - - - - - - - -
25/08:25pm 12.1 NW 39 43 1022.7 - - - - - - - - -
25/08:00pm 12.3 NNW 29 35 1023.3 - - - - - - - - -
25/07:30pm 12.3 NNW 29 34 1023.2 - - - - - - - - -
25/07:25pm 12.2 NNW 29 39 1023.2 - - - - - - - - -
25/07:00pm 12.5 NNW 28 35 1023.3 - - - - - - - - -
25/06:30pm 12.5 NNW 27 33 1023.2 - - - - - - - - -
25/06:00pm 12.3 NNW 26 33 1023.7 - - - - - - - - -
25/05:30pm 12.0 NNW 21 29 1023.8 - - - - - - - - -
25/05:26pm 12.1 NNW 19 29 1023.6 - - - - - - - - -
25/05:00pm 12.0 NNW 17 22 1023.8 - - - - - - - - -
25/04:30pm 11.8 NNW 17 22 1024.0 - - - - - - - - -
25/10:30am 10.1 NNW 13 17 1027.0 - 0.0 - - - - - - -
25/10:00am 9.8 N 11 15 1027.0 - 0.0 - - - - - - -
25/09:30am 9.4 N 12 15 1027.1 - 0.0 - - - - - - -
25/09:00am 9.2 NW 10 16 1027.5 F 2.2 Distant precip. Mostly cloudy 30 <0.5 2.0 12 S
25/08:30am 9.2 NNW 12 18 1027.3 - 2.2 - - - - - - -
25/08:00am 9.0 NNW 10 14 1027.2 - 2.2 - - - - - - -
25/07:30am 9.0 NNW 11 14 1027.0 - 2.2 - - - - - - -
25/07:00am 8.8 NNW 10 14 1026.9 - 2.2 - - - - - - -
25/06:30am 8.7 NNW 12 16 1027.0 - 2.2 - - - - - - -
25/06:00am 8.9 NW 10 17 1027.2 F 2.2 Fine Mostly cloudy 10 <0.5 2.0 12 SW
25/05:30am 8.6 NNW 13 17 1026.9 - 2.2 - - - - - - -
25/05:00am 8.6 NNW 14 21 1026.9 - 2.2 - - - - - - -
25/04:30am 8.2 NNW 14 19 1026.8 - 2.2 - - - - - - -
25/04:00am 8.0 NNW 13 17 1026.8 - 2.0 - - - - - - -
25/03:30am 8.5 NNW 16 21 1026.8 - 1.4 - - - - - - -
25/03:00am 8.4 NNW 14 19 1027.2 - 1.4 - - - - - - -
25/02:30am 8.3 NNW 15 21 1026.9 - 1.4 - - - - - - -
25/02:00am 8.3 NNW 15 21 1027.0 - 1.4 - - - - - - -
25/01:30am 8.3 NNW 13 17 1027.2 - 1.4 - - - - - - -
25/01:00am 8.5 NNW 15 20 1027.1 - 1.4 - - - - - - -
25/12:30am 8.4 NNW 14 17 1027.5 - 1.4 - - - - - - -
25/12:00am 7.9 NNW 12 16 1027.9 - 1.4 - - - - - - -
 
Date/Time
EST
Temp

°C
Wind Pressure Rain
since 9am
mm
Weather Cloud Vis
km
Sea
Height
m
Swell
Dir
 
Speed
knots
Gust
knots
hPa Trend Height
m
Period
s
Dir
24/11:30pm 8.1 NNW 13 17 1027.8 - 1.2 - - - - - - -
24/11:00pm 8.3 NNW 14 20 1027.8 - 1.2 - - - - - - -
24/10:30pm 8.3 NNW 15 20 1027.9 - 1.2 - - - - - - -
24/10:00pm 8.3 NNW 13 17 1028.0 - 1.2 - - - - - - -
24/09:30pm 8.0 NNW 15 19 1028.0 - 1.0 - - - - - - -
24/09:00pm 8.0 NNW 12 17 1028.2 - 0.8 - - - - - - -
24/08:30pm 8.1 NNW 13 18 1027.9 - 0.6 - - - - - - -
24/08:00pm 8.1 NNW 13 17 1028.1 - 0.6 - - - - - - -
24/07:30pm 8.4 NNW 13 18 1028.0 - 0.6 - - - - - - -
24/07:00pm 8.5 NNW 11 15 1028.0 - 0.6 - - - - - - -
24/06:30pm 8.2 NNW 11 15 1028.0 - 0.2 - - - - - - -
24/06:00pm 8.3 NNW 12 16 1028.2 - 0.2 - - - - - - -
24/05:30pm 8.6 NNW 13 19 1027.7 - 0.2 - - - - - - -
24/05:00pm 8.8 NNW 13 17 1027.7 - 0.0 - - - - - - -
24/04:30pm 8.7 NNW 11 15 1027.7 - 0.0 - - - - - - -
24/04:00pm 8.9 NNW 14 20 1027.4 - 0.0 - - - - - - -
24/03:30pm 9.1 NNW 14 18 1027.5 - 0.0 - - - - - - -
24/03:00pm 9.2 NNW 14 19 1027.8 F 0.0 Distant precip. Mostly cloudy 8 <0.5 2.5 15 SW
24/02:30pm 9.2 NNW 15 18 1027.5 - 0.0 - - - - - - -
24/02:00pm 9.2 NNW 16 20 1027.6 - 0.0 - - - - - - -
24/01:30pm 8.9 NNW 16 22 1027.7 - 0.0 - - - - - - -
24/01:00pm 8.9 NNW 13 19 1027.9 - 0.0 - - - - - - -
24/12:30pm 8.6 NNW 13 17 1028.2 - 0.0 - - - - - - -
24/12:00pm 8.5 NNW 12 16 1028.8 - 0.0 - - - - - - -
24/11:30am 8.4 NNW 14 19 1028.6 - 0.0 - - - - - - -
24/11:00am 8.3 NNW 11 17 1029.1 - 0.0 - - - - - - -
24/10:30am 8.0 NNW 14 19 1029.0 - 0.0 - - - - - - -
24/10:00am 8.0 NNW 13 18 1029.0 - 0.0 - - - - - - -
24/09:30am 8.1 NNW 13 18 1029.1 - 0.0 - - - - - - -
24/09:00am 7.8 NW 10 16 1029.5 R 1.4 Drizzle Cloudy 10 <0.5 2.5 13 SW
24/08:30am 7.8 NNW 15 21 1029.2 - 1.2 - - - - - - -
24/08:00am 7.9 NNW 14 19 1029.0 - 1.0 - - - - - - -
24/07:30am 8.1 NNW 17 23 1028.8 - 1.0 - - - - - - -
24/07:00am 8.1 NW 21 24 1028.6 - 0.8 - - - - - - -
24/06:30am 8.2 NW 21 26 1028.6 - 0.8 - - - - - - -
24/06:00am 8.1 WNW 20 29 1028.4 S 0.8 Fine Partly cloudy 15 1 2.5 12 SW
24/05:30am 8.3 NNW 18 21 1028.1 - 0.6 - - - - - - -
24/05:26am 8.2 NNW 17 21 1027.9 - 0.6 - - - - - - -
24/05:10am 8.4 WNW 22 23 1028.2 - 0.4 - - - - - - -
24/05:00am 8.4 NNW 16 24 1028.1 - 0.2 - - - - - - -
24/04:54am 8.6 NNW 18 24 1027.9 - 0.2 - - - - - - -
24/04:30am 9.1 NW 23 27 1027.6 - 0.2 - - - - - - -
24/04:00am 9.3 NW 23 26 1027.5 - 0.2 - - - - - - -
24/03:30am 9.0 NW 22 25 1027.8 - 0.2 - - - - - - -
24/03:00am 9.0 NW 21 26 1028.2 - 0.2 - - - - - - -
24/02:30am 9.0 NW 25 28 1028.0 - 0.2 - - - - - - -
24/02:00am 9.0 NW 23 26 1028.1 - 0.2 - - - - - - -
24/01:30am 8.9 NW 23 26 1027.9 - 0.2 - - - - - - -
24/01:00am 9.3 NW 23 28 1028.0 - 0.2 - - - - - - -
24/12:30am 9.2 NW 24 28 1028.3 - 0.2 - - - - - - -
24/12:00am 9.3 NW 24 27 1028.8 - 0.2 - - - - - - -
 
Date/Time
EST
Temp

°C
Wind Pressure Rain
since 9am
mm
Weather Cloud Vis
km
Sea
Height
m
Swell
Dir
 
Speed
knots
Gust
knots
hPa Trend Height
m
Period
s
Dir
23/11:30pm 9.4 NW 23 27 1028.4 - 0.2 - - - - - - -
23/11:00pm 9.3 NW 22 26 1028.5 - 0.2 - - - - - - -
23/10:30pm 9.0 NW 22 27 1028.7 - 0.2 - - - - - - -
23/10:00pm 9.1 NW 23 27 1028.7 - 0.2 - - - - - - -
23/09:30pm 9.1 NW 24 27 1028.7 - 0.2 - - - - - - -
23/09:00pm 8.9 WNW 20 25 1029.3 - 0.2 - - - - - - -
23/08:30pm 8.7 NW 21 28 1028.7 - 0.2 - - - - - - -
23/08:00pm 8.3 NW 25 30 1028.8 - 0.2 - - - - - - -
23/07:30pm 8.6 WNW 22 28 1028.7 - 0.0 - - - - - - -
23/07:00pm 8.2 WNW 22 25 1028.8 - 0.0 - - - - - - -
23/06:30pm 8.5 WNW 27 31 1028.5 - 0.0 - - - - - - -
23/06:00pm 8.9 WNW 20 25 1029.2 - 0.0 - - - - - - -
23/05:30pm 9.7 WNW 24 30 1028.5 - 0.0 - - - - - - -
23/05:00pm 9.8 NW 26 31 1028.1 - 0.0 - - - - - - -
23/04:30pm 9.8 NW 28 31 1028.1 - 0.0 - - - - - - -
23/04:00pm 9.8 NW 26 31 1028.0 - 0.0 - - - - - - -
23/03:30pm 9.8 NW 25 31 1028.0 - 0.0 - - - - - - -
23/03:00pm 9.8 WSW 25 34 1028.1 R 0.0 Fine Mostly cloudy 10 1 3.5 13 SW
23/02:30pm 10.0 WNW 27 30 1028.0 - 0.0 - - - - - - -
23/02:00pm 10.2 NW 26 30 1027.9 - 0.0 - - - - - - -
23/01:30pm 10.1 WNW 26 30 1028.2 - 0.0 - - - - - - -
23/01:00pm 10.0 WNW 27 30 1028.1 - 0.0 - - - - - - -
23/12:30pm 10.2 NW 28 32 1028.1 - 0.0 - - - - - - -
23/12:00pm 10.2 NW 29 33 1028.5 - 0.0 - - - - - - -
23/11:30am 9.9 WNW 28 33 1028.5 - 0.0 - - - - - - -
23/11:00am 9.2 WNW 24 30 1028.9 - 0.0 - - - - - - -
23/10:30am 9.6 NW 28 33 1028.7 - 0.0 - - - - - - -
23/10:00am 9.9 NW 32 36 1028.4 - 0.0 - - - - - - -
23/09:30am 9.6 WNW 31 35 1028.6 - 0.0 - - - - - - -
23/09:00am 9.2 W 25 40 1028.3 F 0.6 Drizzle Cloudy 8 1 3.5 13 SW
23/08:30am 9.2 NW 31 36 1028.1 - 0.6 - - - - - - -
23/08:00am 8.7 WNW 27 32 1028.2 - 0.6 - - - - - - -
23/07:30am 9.0 NW 28 33 1027.6 - 0.6 - - - - - - -
23/07:00am 8.1 NW 32 36 1027.5 - 0.6 - - - - - - -
23/06:30am 9.0 NW 29 33 1027.5 - 0.4 - - - - - - -
23/06:00am 8.9 WNW 25 31 1028.1 R 0.4 Drizzle Cloudy 5 1 3.0 12 SW
23/05:30am 8.3 NW 29 33 1027.4 - 0.4 - - - - - - -
23/05:00am 9.0 WNW 30 35 1027.2 - 0.4 - - - - - - -
23/04:30am 9.2 NW 28 32 1027.2 - 0.4 - - - - - - -
23/04:00am 9.4 NW 33 37 1026.7 - 0.4 - - - - - - -
23/03:30am 9.5 NW 30 34 1027.0 - 0.4 - - - - - - -
23/03:00am 9.1 NW 30 35 1027.7 - 0.4 - - - - - - -
23/02:30am 9.3 NW 29 33 1027.5 - 0.4 - - - - - - -
23/02:00am 8.9 NW 30 34 1027.4 - 0.4 - - - - - - -

Other Formats:

Comma delimited format used in spreadsheet applications
http://www.bom.gov.au/fwo/IDT60701/IDT60701.94962.axf

JavaScript Object Notation format (JSON) in row-major order
http://www.bom.gov.au/fwo/IDT60701/IDT60701.94962.json